Time;durP1;ratioP1;P1;durP2;ratioP2;P2;SDS_P1;SDS_P2;PMS_P1;PMS_P2;Temp;Humidity;BMP_temperature;BMP_pressure;BME280_temperature;BME280_humidity;BME280_pressure;Samples;Min_cycle;Max_cycle;Signal;HPM_P1;HPM_P2
2023/07/11 00:00:18;;;;;;;5.40;1.25;;;20.60;99.90;;;;;;5003814;28;20133;-33
2023/07/11 00:02:46;;;;;;;5.60;0.93;;;20.60;99.90;;;;;;4999189;28;20057;-33
2023/07/11 00:05:13;;;;;;;3.33;0.65;;;20.60;99.90;;;;;;5004294;28;20053;-33
2023/07/11 00:07:39;;;;;;;5.53;1.20;;;20.50;99.90;;;;;;5009549;28;20454;-34
2023/07/11 00:10:06;;;;;;;2.90;1.00;;;20.50;99.90;;;;;;5006250;28;20050;-33
2023/07/11 00:12:32;;;;;;;2.47;0.90;;;20.50;99.90;;;;;;5007496;28;20065;-33
2023/07/11 00:14:58;;;;;;;3.75;0.98;;;20.40;99.90;;;;;;5006745;28;20127;-33
2023/07/11 00:17:24;;;;;;;3.08;0.93;;;20.30;99.90;;;;;;5015694;28;20057;-33
2023/07/11 00:19:58;;;;;;;2.63;1.15;;;20.20;99.90;;;;;;5012807;28;20046;-33
2023/07/11 00:22:29;;;;;;;5.05;1.00;;;20.10;99.90;;;;;;5018594;28;20203;-33
2023/07/11 00:24:55;;;;;;;3.75;0.90;;;20.00;99.90;;;;;;4994338;28;20137;-33
2023/07/11 00:27:23;;;;;;;3.13;1.48;;;19.90;99.90;;;;;;5001271;28;20081;-33
2023/07/11 00:29:50;;;;;;;3.45;1.00;;;19.80;99.90;;;;;;5000864;28;20050;-34
2023/07/11 00:32:16;;;;;;;5.45;1.38;;;19.80;99.90;;;;;;4983148;28;20066;-33
2023/07/11 00:34:42;;;;;;;6.22;1.17;;;19.80;99.90;;;;;;5000789;28;20626;-34
2023/07/11 00:37:08;;;;;;;4.22;1.33;;;19.80;99.90;;;;;;5017564;28;20134;-34
2023/07/11 00:39:35;;;;;;;2.85;1.00;;;19.80;99.90;;;;;;4998884;28;20050;-33
2023/07/11 00:42:01;;;;;;;2.88;0.98;;;19.70;99.90;;;;;;4998999;28;20046;-33
2023/07/11 00:44:26;;;;;;;3.25;1.10;;;19.70;99.90;;;;;;5003398;28;20154;-33
2023/07/11 00:46:52;;;;;;;4.28;1.00;;;19.70;99.90;;;;;;5006246;28;20053;-33
2023/07/11 00:49:21;;;;;;;2.28;1.10;;;19.60;99.90;;;;;;5013262;28;20062;-33
2023/07/11 00:51:59;;;;;;;3.08;1.00;;;19.60;99.90;;;;;;4991417;28;20082;-33
2023/07/11 00:54:30;;;;;;;4.20;1.23;;;19.60;99.90;;;;;;4988447;28;20399;-34
2023/07/11 00:56:58;;;;;;;2.88;1.00;;;19.50;99.90;;;;;;5000073;28;20042;-34
2023/07/11 00:59:25;;;;;;;2.97;1.25;;;19.40;99.90;;;;;;5004534;28;20187;-33
2023/07/11 01:02:00;;;;;;;4.70;1.23;;;19.20;99.90;;;;;;5002077;28;20068;-33
2023/07/11 01:04:26;;;;;;;3.60;1.67;;;19.10;99.90;;;;;;4996079;28;20079;-34
2023/07/11 01:06:52;;;;;;;8.95;1.80;;;19.00;99.90;;;;;;4999786;28;20541;-33
2023/07/11 01:09:17;;;;;;;2.17;1.40;;;18.90;99.90;;;;;;4991170;28;20054;-33
2023/07/11 01:11:53;;;;;;;2.72;1.45;;;18.90;99.90;;;;;;4990807;28;20105;-33
2023/07/11 01:14:19;;;;;;;5.72;1.30;;;18.80;99.90;;;;;;4991850;28;20038;-33
2023/07/11 01:16:45;;;;;;;3.28;1.58;;;18.80;99.90;;;;;;5003910;28;20483;-33
2023/07/11 01:19:11;;;;;;;3.72;1.52;;;18.90;99.90;;;;;;4997125;28;20056;-34
2023/07/11 01:21:37;;;;;;;5.72;1.80;;;18.90;99.90;;;;;;4990855;28;20083;-33
2023/07/11 01:24:03;;;;;;;3.35;1.50;;;18.90;99.90;;;;;;4987182;28;20657;-33
2023/07/11 01:26:29;;;;;;;2.70;1.42;;;18.90;99.90;;;;;;4999437;28;20161;-33
2023/07/11 01:28:56;;;;;;;2.40;1.30;;;18.90;99.90;;;;;;5007319;28;21576;-33
2023/07/11 01:31:21;;;;;;;3.65;1.55;;;18.90;99.90;;;;;;4987188;28;20365;-33
2023/07/11 01:33:47;;;;;;;6.10;1.63;;;18.90;99.90;;;;;;4995920;28;20416;-33
2023/07/11 01:36:13;;;;;;;8.50;1.73;;;18.90;99.90;;;;;;4985328;28;20519;-33
2023/07/11 01:38:39;;;;;;;4.90;1.55;;;18.80;99.90;;;;;;5000505;28;20050;-47
2023/07/11 01:41:05;;;;;;;5.75;1.90;;;18.70;99.90;;;;;;4990105;28;20413;-33
2023/07/11 01:43:31;;;;;;;4.57;1.77;;;18.70;99.90;;;;;;4988253;28;20054;-33
2023/07/11 01:45:57;;;;;;;3.55;1.65;;;18.70;99.90;;;;;;5000497;28;20046;-33
2023/07/11 01:48:22;;;;;;;4.30;1.55;;;18.70;99.90;;;;;;4989589;28;20458;-34
2023/07/11 01:50:48;;;;;;;6.90;1.92;;;18.60;99.90;;;;;;4989802;28;20045;-33
2023/07/11 01:53:13;;;;;;;5.70;2.10;;;18.60;99.90;;;;;;4994737;28;20499;-33
2023/07/11 01:55:39;;;;;;;3.50;1.70;;;18.60;99.90;;;;;;5005963;28;20581;-33
2023/07/11 01:58:05;;;;;;;6.65;2.13;;;18.60;99.90;;;;;;4997214;28;20049;-33
2023/07/11 02:00:31;;;;;;;4.45;1.60;;;18.60;99.90;;;;;;4994552;28;20096;-33
2023/07/11 02:02:56;;;;;;;2.60;1.45;;;18.60;99.90;;;;;;4991135;28;20187;-33
2023/07/11 02:05:23;;;;;;;5.00;1.83;;;18.50;99.90;;;;;;4997483;28;20058;-33
2023/07/11 02:07:49;;;;;;;7.28;2.20;;;18.50;99.90;;;;;;4990826;28;20077;-33
2023/07/11 02:10:15;;;;;;;7.82;2.10;;;18.50;99.90;;;;;;4995696;28;20054;-33
2023/07/11 02:12:40;;;;;;;9.32;2.03;;;18.50;99.90;;;;;;4994291;28;20054;-34
2023/07/11 02:15:07;;;;;;;5.85;1.70;;;18.40;99.90;;;;;;4997076;28;20056;-33
2023/07/11 02:17:33;;;;;;;5.53;1.80;;;18.30;99.90;;;;;;4999029;28;20068;-34
2023/07/11 02:19:59;;;;;;;3.67;1.88;;;18.20;99.90;;;;;;5001910;28;20434;-33
2023/07/11 02:22:24;;;;;;;3.38;1.83;;;18.10;99.90;;;;;;4994465;28;20038;-32
2023/07/11 02:24:50;;;;;;;3.28;1.90;;;18.10;99.90;;;;;;4994805;28;20532;-33
2023/07/11 02:27:16;;;;;;;5.85;2.05;;;18.10;99.90;;;;;;5005667;28;20050;-33
2023/07/11 02:29:41;;;;;;;3.58;2.00;;;18.10;99.90;;;;;;4994071;28;20050;-33
2023/07/11 02:32:07;;;;;;;2.63;1.40;;;18.10;99.90;;;;;;4991655;28;20528;-33
2023/07/11 02:34:33;;;;;;;4.22;1.88;;;18.10;99.90;;;;;;4981104;28;20058;-33
2023/07/11 02:36:59;;;;;;;3.92;1.92;;;18.10;99.90;;;;;;4985086;28;20511;-33
2023/07/11 02:39:24;;;;;;;4.38;1.90;;;18.10;99.90;;;;;;4991741;28;20503;-33
2023/07/11 02:41:50;;;;;;;4.90;2.00;;;18.10;99.90;;;;;;5000386;28;20423;-33
2023/07/11 02:44:15;;;;;;;6.00;1.80;;;18.10;99.90;;;;;;4998785;28;20529;-33
2023/07/11 02:46:41;;;;;;;4.97;2.00;;;18.10;99.90;;;;;;4999629;28;20407;-33
2023/07/11 02:49:08;;;;;;;3.78;1.75;;;18.10;99.90;;;;;;5000908;28;20060;-33
2023/07/11 02:51:35;;;;;;;4.25;1.83;;;18.10;99.90;;;;;;5001041;28;20145;-33
2023/07/11 02:54:02;;;;;;;3.42;1.52;;;18.10;99.90;;;;;;5001120;28;20046;-33
2023/07/11 02:56:28;;;;;;;4.03;1.83;;;18.20;99.90;;;;;;5003050;28;20053;-33
2023/07/11 02:58:53;;;;;;;4.95;1.90;;;18.20;99.90;;;;;;5000263;28;20392;-33
2023/07/11 03:01:19;;;;;;;2.92;1.60;;;18.30;99.90;;;;;;5002875;28;20419;-33
2023/07/11 03:03:45;;;;;;;5.38;1.73;;;18.30;99.90;;;;;;4992714;28;20054;-33
2023/07/11 03:06:11;;;;;;;5.78;1.95;;;18.30;99.90;;;;;;4999097;28;20671;-33
2023/07/11 03:08:37;;;;;;;4.32;1.95;;;18.30;99.90;;;;;;4997106;28;20057;-34
2023/07/11 03:11:03;;;;;;;5.95;1.58;;;18.30;99.90;;;;;;5005418;28;20053;-33
2023/07/11 03:13:29;;;;;;;5.75;1.90;;;18.30;99.90;;;;;;4991909;28;21127;-33
2023/07/11 03:15:55;;;;;;;3.90;1.70;;;18.30;99.90;;;;;;4995289;28;20096;-33
2023/07/11 03:18:21;;;;;;;5.03;1.95;;;18.30;99.90;;;;;;4987973;28;20424;-33
2023/07/11 03:20:46;;;;;;;4.90;2.00;;;18.30;99.90;;;;;;4999249;28;20108;-34
2023/07/11 03:23:14;;;;;;;4.60;2.00;;;18.40;99.90;;;;;;4993224;28;20057;-34
2023/07/11 03:25:40;;;;;;;5.22;1.77;;;18.30;99.90;;;;;;5003523;28;20514;-33
2023/07/11 03:28:07;;;;;;;6.63;2.10;;;18.40;99.90;;;;;;4991845;28;20057;-33
2023/07/11 03:30:34;;;;;;;3.70;1.83;;;18.40;99.90;;;;;;5000031;28;20050;-33
2023/07/11 03:33:00;;;;;;;5.70;1.90;;;18.30;99.90;;;;;;5014805;28;20054;-33
2023/07/11 03:35:26;;;;;;;5.57;2.05;;;18.40;99.90;;;;;;4998367;28;21465;-33
2023/07/11 03:37:52;;;;;;;4.80;2.28;;;18.30;99.90;;;;;;4993598;28;20054;-33
2023/07/11 03:40:18;;;;;;;9.10;2.30;;;18.40;99.90;;;;;;5002778;28;20065;-33
2023/07/11 03:42:43;;;;;;;5.65;2.20;;;18.40;99.90;;;;;;4999918;28;20463;-34
2023/07/11 03:45:09;;;;;;;7.22;2.63;;;18.40;99.90;;;;;;4995629;28;20049;-33
2023/07/11 03:47:35;;;;;;;5.13;2.20;;;18.30;99.90;;;;;;5003954;28;20116;-33
2023/07/11 03:50:01;;;;;;;7.85;2.47;;;18.30;99.90;;;;;;4987702;28;20602;-33
2023/07/11 03:52:26;;;;;;;5.65;2.63;;;18.30;99.90;;;;;;4993275;28;20078;-33
2023/07/11 03:54:52;;;;;;;5.32;2.50;;;18.20;99.90;;;;;;4987340;28;20483;-38
2023/07/11 03:57:18;;;;;;;3.63;2.53;;;18.20;99.90;;;;;;4990960;28;20054;-33
2023/07/11 03:59:44;;;;;;;11.82;3.58;;;18.20;99.90;;;;;;5003454;28;20165;-33
2023/07/11 04:02:09;;;;;;;8.02;3.00;;;18.20;99.90;;;;;;5014839;28;20088;-33
2023/07/11 04:04:35;;;;;;;8.40;3.30;;;18.20;99.90;;;;;;5001605;28;20521;-33
2023/07/11 04:07:03;;;;;;;7.60;2.78;;;18.20;99.90;;;;;;4999289;28;20468;-33
2023/07/11 04:09:28;;;;;;;7.75;2.88;;;18.20;99.90;;;;;;5000517;28;20496;-33
2023/07/11 04:11:54;;;;;;;6.20;2.88;;;18.20;99.90;;;;;;5003079;28;20068;-33
2023/07/11 04:14:20;;;;;;;5.22;2.47;;;18.20;99.90;;;;;;5000294;28;20057;-33
2023/07/11 04:16:45;;;;;;;6.30;2.85;;;18.30;99.90;;;;;;4995765;28;20057;-33
2023/07/11 04:19:11;;;;;;;6.85;3.35;;;18.30;99.90;;;;;;5004223;28;20038;-34
2023/07/11 04:21:37;;;;;;;7.40;2.60;;;18.30;99.90;;;;;;4994902;28;20045;-34
2023/07/11 04:24:03;;;;;;;4.68;3.13;;;18.30;99.90;;;;;;5006131;28;20080;-34
2023/07/11 04:26:28;;;;;;;6.00;3.17;;;18.30;99.90;;;;;;5001545;28;20420;-34
2023/07/11 04:28:54;;;;;;;13.23;3.55;;;18.30;99.90;;;;;;4972880;28;20049;-36
2023/07/11 04:31:21;;;;;;;6.97;3.13;;;18.30;99.90;;;;;;4986806;28;20535;-33
2023/07/11 04:33:46;;;;;;;6.25;3.53;;;18.40;99.90;;;;;;5005650;28;20057;-34
2023/07/11 04:36:15;;;;;;;4.65;2.95;;;18.40;99.90;;;;;;4996585;28;20391;-36
2023/07/11 04:38:41;;;;;;;5.20;3.10;;;18.40;99.90;;;;;;5003711;28;20075;-34
2023/07/11 04:41:07;;;;;;;6.25;2.95;;;18.50;99.90;;;;;;4994228;28;20046;-34
2023/07/11 04:43:33;;;;;;;6.93;3.00;;;18.50;99.90;;;;;;5003590;28;20050;-34
2023/07/11 04:46:01;;;;;;;11.65;2.85;;;18.50;99.90;;;;;;5006265;28;20699;-34
2023/07/11 04:48:27;;;;;;;7.40;3.40;;;18.50;99.90;;;;;;5000099;28;20045;-34
2023/07/11 04:51:00;;;;;;;5.68;3.05;;;18.50;99.90;;;;;;4983862;28;20567;-34
2023/07/11 04:53:27;;;;;;;5.13;3.10;;;18.60;99.90;;;;;;4973011;28;20062;-34
2023/07/11 04:56:00;;;;;;;7.70;3.63;;;18.60;99.90;;;;;;4985359;28;20065;-34
2023/07/11 04:58:29;;;;;;;8.30;3.35;;;18.60;99.90;;;;;;4978427;28;20042;-34
2023/07/11 05:01:10;;;;;;;5.13;3.20;;;18.60;99.90;;;;;;4986088;28;20097;-34
2023/07/11 05:03:36;;;;;;;6.88;3.83;;;18.60;99.90;;;;;;4999856;28;20055;-34
2023/07/11 05:06:03;;;;;;;6.10;3.50;;;18.70;99.90;;;;;;4990695;28;20145;-34
2023/07/11 05:08:29;;;;;;;5.97;2.85;;;18.70;99.90;;;;;;4990953;28;20053;-34
2023/07/11 05:11:04;;;;;;;6.35;3.30;;;18.80;99.90;;;;;;5003054;28;20058;-32
2023/07/11 05:13:32;;;;;;;6.50;4.13;;;18.80;99.90;;;;;;4989187;28;20061;-34
2023/07/11 05:16:06;;;;;;;6.65;3.20;;;18.80;99.90;;;;;;4988782;28;20100;-34
2023/07/11 05:18:32;;;;;;;7.13;3.75;;;18.80;99.90;;;;;;5000705;28;20077;-34
2023/07/11 05:20:58;;;;;;;7.28;4.10;;;18.90;99.90;;;;;;4995142;28;20492;-34
2023/07/11 05:23:26;;;;;;;6.97;3.53;;;19.00;99.90;;;;;;4998973;28;20096;-34
2023/07/11 05:25:54;;;;;;;5.63;3.33;;;19.10;99.90;;;;;;4996926;28;20507;-34
2023/07/11 05:28:20;;;;;;;8.20;3.70;;;19.10;99.90;;;;;;4995306;28;20605;-34
2023/07/11 05:30:46;;;;;;;6.53;3.58;;;19.10;99.90;;;;;;4996699;28;20058;-34
2023/07/11 05:33:12;;;;;;;8.00;3.65;;;19.20;99.90;;;;;;4998548;28;20463;-34
2023/07/11 05:35:46;;;;;;;6.45;3.63;;;19.20;99.90;;;;;;4992132;28;20091;-35
2023/07/11 05:38:14;;;;;;;8.00;3.72;;;19.40;99.90;;;;;;4987182;28;20503;-36
2023/07/11 05:40:43;;;;;;;7.80;3.88;;;19.50;99.90;;;;;;4991823;28;20109;-35
2023/07/11 05:43:08;;;;;;;9.73;3.22;;;19.60;99.90;;;;;;4992988;28;20070;-35
2023/07/11 05:45:34;;;;;;;7.30;3.60;;;19.70;99.90;;;;;;4978536;28;20061;-35
2023/07/11 05:48:00;;;;;;;8.02;4.15;;;19.70;99.90;;;;;;4993333;28;20054;-42
2023/07/11 05:50:27;;;;;;;5.70;3.78;;;19.80;99.90;;;;;;4987053;28;20415;-35
2023/07/11 05:52:52;;;;;;;6.88;3.13;;;19.80;99.90;;;;;;5001735;28;20054;-34
2023/07/11 05:55:18;;;;;;;7.25;3.30;;;19.90;99.90;;;;;;4993920;28;20069;-35
2023/07/11 05:57:44;;;;;;;8.18;3.35;;;20.00;99.90;;;;;;4992616;28;20050;-35
2023/07/11 06:00:10;;;;;;;11.52;4.05;;;20.10;99.90;;;;;;4989843;28;20119;-35
2023/07/11 06:02:36;;;;;;;5.03;3.30;;;20.10;99.90;;;;;;4991945;28;20065;-35
2023/07/11 06:05:02;;;;;;;7.07;3.60;;;20.20;99.90;;;;;;4985252;28;20050;-35
2023/07/11 06:07:28;;;;;;;4.82;3.40;;;20.20;99.90;;;;;;4993016;28;20053;-35
2023/07/11 06:09:57;;;;;;;5.70;3.58;;;20.20;99.90;;;;;;4997008;28;20140;-35
2023/07/11 06:12:23;;;;;;;7.22;3.63;;;20.20;99.90;;;;;;4991394;28;20053;-35
2023/07/11 06:14:49;;;;;;;5.13;3.50;;;20.30;99.90;;;;;;5003879;28;20053;-35
2023/07/11 06:17:15;;;;;;;7.82;3.80;;;20.30;99.90;;;;;;5005651;28;20137;-35
2023/07/11 06:19:41;;;;;;;5.40;3.60;;;20.40;99.90;;;;;;4993957;28;20140;-35
2023/07/11 06:22:07;;;;;;;7.43;3.40;;;20.40;99.90;;;;;;5002228;28;20559;-35
2023/07/11 06:24:33;;;;;;;5.68;3.13;;;20.30;99.90;;;;;;4998546;28;20137;-35
2023/07/11 06:26:59;;;;;;;4.88;2.75;;;20.40;99.90;;;;;;5014498;28;20045;-35
2023/07/11 06:29:28;;;;;;;6.57;3.22;;;20.40;99.90;;;;;;4995180;28;20465;-35
2023/07/11 06:31:53;;;;;;;5.05;2.85;;;20.40;99.90;;;;;;5003856;28;20151;-35
2023/07/11 06:34:19;;;;;;;6.78;3.50;;;20.40;99.90;;;;;;5011082;28;20042;-35
2023/07/11 06:36:45;;;;;;;5.90;3.40;;;20.40;99.90;;;;;;4997477;28;20430;-35
2023/07/11 06:39:10;;;;;;;4.78;3.40;;;20.40;99.90;;;;;;5006893;28;20054;-35
2023/07/11 06:41:36;;;;;;;7.80;3.70;;;20.40;99.90;;;;;;5005309;28;20092;-35
2023/07/11 06:44:02;;;;;;;8.27;3.90;;;20.40;99.90;;;;;;5006556;28;20081;-34
2023/07/11 06:46:27;;;;;;;7.78;3.10;;;20.40;99.90;;;;;;5000359;28;20049;-35
2023/07/11 06:48:55;;;;;;;5.97;3.25;;;20.50;99.90;;;;;;5006761;28;20069;-35
2023/07/11 06:51:21;;;;;;;8.32;3.55;;;20.50;99.90;;;;;;4998570;28;20108;-35
2023/07/11 06:53:46;;;;;;;8.82;3.55;;;20.60;99.90;;;;;;4994313;28;20128;-35
2023/07/11 06:56:12;;;;;;;5.10;2.92;;;20.70;99.90;;;;;;4995556;28;20054;-35
2023/07/11 06:58:38;;;;;;;7.07;3.80;;;20.80;99.90;;;;;;5008685;28;20054;-35
2023/07/11 07:01:06;;;;;;;5.68;3.25;;;21.00;99.90;;;;;;4997056;28;20054;-35
2023/07/11 07:03:33;;;;;;;6.32;2.78;;;21.10;99.90;;;;;;4997733;28;20046;-35
2023/07/11 07:06:02;;;;;;;5.78;2.83;;;21.20;99.90;;;;;;5009534;28;20132;-35
2023/07/11 07:08:28;;;;;;;5.10;2.58;;;21.20;99.90;;;;;;5004837;28;20051;-35
2023/07/11 07:10:53;;;;;;;6.65;2.60;;;21.30;99.90;;;;;;5002814;28;20108;-35
2023/07/11 07:13:22;;;;;;;4.15;2.40;;;21.40;99.90;;;;;;4996912;28;20053;-35
2023/07/11 07:15:54;;;;;;;5.50;2.60;;;21.60;99.90;;;;;;4993695;28;20108;-35
2023/07/11 07:18:20;;;;;;;5.05;2.40;;;21.70;99.90;;;;;;4993298;28;20084;-35
2023/07/11 07:20:47;;;;;;;3.95;2.25;;;21.90;99.90;;;;;;4990880;28;20128;-35
2023/07/11 07:23:14;;;;;;;5.88;2.53;;;22.00;99.90;;;;;;4988965;28;20042;-35
2023/07/11 07:25:40;;;;;;;4.63;2.55;;;22.10;99.90;;;;;;4988741;28;20081;-35
2023/07/11 07:28:07;;;;;;;3.55;2.00;;;22.20;99.90;;;;;;4991908;28;20062;-40
2023/07/11 07:30:36;;;;;;;6.00;2.40;;;22.30;99.90;;;;;;5002720;28;20064;-36
2023/07/11 07:33:01;;;;;;;4.07;2.00;;;22.40;99.90;;;;;;5004378;28;20050;-35
2023/07/11 07:35:27;;;;;;;3.90;1.70;;;22.50;99.90;;;;;;5008838;28;20084;-35
2023/07/11 07:37:53;;;;;;;7.28;2.20;;;22.70;99.90;;;;;;4994985;28;20041;-36
2023/07/11 07:40:19;;;;;;;5.55;2.72;;;22.90;99.90;;;;;;4996402;28;20042;-35
2023/07/11 07:42:44;;;;;;;8.68;2.42;;;23.00;99.90;;;;;;4993379;28;20048;-35
2023/07/11 07:45:10;;;;;;;4.65;1.77;;;23.10;99.90;;;;;;4990181;28;20431;-35
2023/07/11 07:47:36;;;;;;;4.82;1.70;;;23.20;99.90;;;;;;4996649;28;20057;-35
2023/07/11 07:50:03;;;;;;;4.43;2.05;;;23.40;99.90;;;;;;5010593;28;20060;-35
2023/07/11 07:52:29;;;;;;;3.35;1.58;;;23.50;99.90;;;;;;5006894;28;20054;-36
2023/07/11 07:54:54;;;;;;;4.50;1.60;;;23.60;99.90;;;;;;5005726;28;20393;-36
2023/07/11 07:57:20;;;;;;;4.50;1.77;;;23.70;99.90;;;;;;5002054;28;20049;-36
2023/07/11 07:59:45;;;;;;;4.65;1.70;;;23.80;99.90;;;;;;5004251;28;20061;-36
2023/07/11 08:02:11;;;;;;;4.35;1.80;;;23.90;99.90;;;;;;5000787;28;20500;-36
2023/07/11 08:04:37;;;;;;;3.70;1.42;;;24.00;99.90;;;;;;5006738;28;20130;-36
2023/07/11 08:07:03;;;;;;;4.15;1.52;;;24.10;99.90;;;;;;4995625;28;20054;-36
2023/07/11 08:09:29;;;;;;;5.20;1.48;;;24.20;99.90;;;;;;5005575;28;20058;-36
2023/07/11 08:12:03;;;;;;;3.20;1.33;;;24.40;99.90;;;;;;5007901;28;20061;-36
2023/07/11 08:14:29;;;;;;;5.40;1.30;;;24.40;99.90;;;;;;5010002;28;20078;-36
2023/07/11 08:16:54;;;;;;;5.65;1.60;;;24.60;99.90;;;;;;4996574;28;20070;-36
2023/07/11 08:19:20;;;;;;;5.43;1.38;;;24.70;99.90;;;;;;4997846;28;20049;-35
2023/07/11 08:21:46;;;;;;;7.10;1.83;;;24.80;99.90;;;;;;5001770;28;20050;-35
2023/07/11 08:24:12;;;;;;;3.63;1.45;;;24.90;99.90;;;;;;5002095;28;20084;-36
2023/07/11 08:26:38;;;;;;;3.55;1.60;;;24.90;99.90;;;;;;5010407;28;20050;-36
2023/07/11 08:29:04;;;;;;;3.58;1.50;;;25.00;99.90;;;;;;5011070;28;20045;-35
2023/07/11 08:31:30;;;;;;;3.30;1.52;;;25.00;99.90;;;;;;5002265;28;20049;-35
2023/07/11 08:33:55;;;;;;;7.70;1.42;;;25.10;99.90;;;;;;5006220;28;20486;-33
2023/07/11 08:36:21;;;;;;;8.25;1.65;;;25.30;99.90;;;;;;5002648;28;20054;-36
2023/07/11 08:38:47;;;;;;;7.03;1.40;;;25.30;99.90;;;;;;5020862;28;20072;-36
2023/07/11 08:41:36;;;;;;;4.47;1.23;;;25.40;99.90;;;;;;4995169;28;20046;-35
2023/07/11 08:44:08;;;;;;;3.78;0.95;;;25.50;99.90;;;;;;5008727;28;20061;-36
2023/07/11 08:46:40;;;;;;;8.93;1.73;;;25.60;99.90;;;;;;4996749;28;20058;-35
2023/07/11 08:49:06;;;;;;;;;;;25.60;99.90;;;;;;4992947;28;20057;-36
2023/07/11 08:51:37;;;;;;;2.45;0.93;;;25.70;99.90;;;;;;5000427;28;19984;-36
2023/07/11 08:54:27;;;;;;;3.45;0.95;;;25.90;99.90;;;;;;5012017;28;20077;-35
2023/07/11 08:56:54;;;;;;;5.18;1.10;;;26.10;99.90;;;;;;5006725;28;20084;-34
2023/07/11 08:59:32;;;;;;;4.30;1.38;;;26.30;99.90;;;;;;5004294;28;20500;-36
2023/07/11 09:02:34;;;;;;;4.70;1.33;;;26.40;99.90;;;;;;4989121;28;20105;-35
2023/07/11 09:05:03;;;;;;;3.22;1.00;;;26.50;99.90;;;;;;4994999;28;20058;-35
2023/07/11 09:07:44;;;;;;;3.58;1.45;;;26.50;99.90;;;;;;4992510;28;20044;-36
2023/07/11 09:10:55;;;;;;;2.58;1.20;;;26.50;99.90;;;;;;4999846;28;20046;-35
2023/07/11 09:13:54;;;;;;;4.28;1.75;;;26.50;99.90;;;;;;5021911;28;20129;-35
2023/07/11 09:16:38;;;;;;;2.42;1.10;;;26.50;99.90;;;;;;5011163;28;20619;-35
2023/07/11 09:19:28;;;;;;;3.20;1.50;;;26.60;99.90;;;;;;4994276;28;20054;-35
2023/07/11 09:21:56;;;;;;;4.78;1.45;;;26.70;99.90;;;;;;5007325;28;20123;-35
2023/07/11 09:24:37;;;;;;;5.22;1.00;;;27.00;99.90;;;;;;5003694;28;20496;-35
2023/07/11 09:27:21;;;;;;;4.22;0.90;;;27.00;99.90;;;;;;4992152;28;20046;-33
2023/07/11 09:29:49;;;;;;;4.82;1.20;;;27.10;99.90;;;;;;5005437;28;20049;-37
2023/07/11 09:32:16;;;;;;;3.67;0.90;;;27.10;99.90;;;;;;5000001;28;20137;-36
2023/07/11 09:34:44;;;;;;;6.43;1.15;;;27.10;99.90;;;;;;5003239;28;20056;-34
2023/07/11 09:37:27;;;;;;;4.30;1.40;;;27.10;99.90;;;;;;4998318;28;20141;-36
2023/07/11 09:39:58;;;;;;;3.67;0.85;;;27.10;99.90;;;;;;5003582;28;20535;-36
2023/07/11 09:42:46;;;;;;;3.10;0.98;;;27.00;99.90;;;;;;5006528;28;20835;-33
2023/07/11 09:45:14;;;;;;;3.75;1.10;;;27.00;99.90;;;;;;4995836;28;20042;-34
2023/07/11 09:47:42;;;;;;;3.38;0.98;;;27.00;99.90;;;;;;4999280;28;20046;-34
2023/07/11 09:50:45;;;;;;;4.15;1.20;;;27.00;99.90;;;;;;5002216;28;20073;-34
2023/07/11 09:53:19;;;;;;;2.53;1.02;;;27.00;99.90;;;;;;5002325;28;22040;-36
2023/07/11 09:55:45;;;;;;;3.00;1.10;;;27.10;99.90;;;;;;4999377;28;20057;-33
2023/07/11 09:58:16;;;;;;;3.58;1.35;;;27.20;99.90;;;;;;5000149;28;20045;-34
2023/07/11 10:00:51;;;;;;;5.57;1.70;;;27.30;99.90;;;;;;5002761;28;20050;-33
2023/07/11 10:03:22;;;;;;;5.93;1.40;;;27.30;99.90;;;;;;5001670;28;20054;-34
2023/07/11 10:05:52;;;;;;;2.60;1.10;;;27.40;99.90;;;;;;4987339;28;20059;-34
2023/07/11 10:08:26;;;;;;;3.28;1.25;;;27.30;99.90;;;;;;4992897;28;20050;-37
2023/07/11 10:10:54;;;;;;;3.20;1.00;;;27.40;99.90;;;;;;4992372;28;20400;-34
2023/07/11 10:13:22;;;;;;;4.07;1.52;;;27.40;99.90;;;;;;4994614;28;20107;-34
2023/07/11 10:15:51;;;;;;;3.05;1.20;;;27.50;99.90;;;;;;4991996;28;20084;-34
2023/07/11 10:18:38;;;;;;;5.45;1.42;;;27.60;99.90;;;;;;4995115;28;20119;-34
2023/07/11 10:21:13;;;;;;;3.72;1.30;;;27.40;99.90;;;;;;4990636;28;20075;-33
2023/07/11 10:23:41;;;;;;;3.33;1.45;;;27.40;99.90;;;;;;4996734;28;20488;-34
2023/07/11 10:26:28;;;;;;;4.53;1.25;;;27.40;99.90;;;;;;4996687;28;20121;-35
2023/07/11 10:29:00;;;;;;;3.42;1.48;;;27.30;99.90;;;;;;4995237;28;20076;-35
2023/07/11 10:31:34;;;;;;;;;;;27.40;99.90;;;;;;4999976;28;20151;-35
2023/07/11 10:34:13;;;;;;;3.70;1.20;;;27.40;99.90;;;;;;4997958;28;20405;-34
2023/07/11 10:36:54;;;;;;;4.63;1.30;;;27.40;99.90;;;;;;4989954;28;20069;-35
2023/07/11 10:39:26;;;;;;;2.65;1.00;;;27.40;99.90;;;;;;4994649;28;20116;-34
2023/07/11 10:42:04;;;;;;;2.95;1.25;;;27.50;99.90;;;;;;5001281;28;20049;-34
2023/07/11 10:44:45;;;;;;;5.05;1.20;;;27.60;99.90;;;;;;5007438;28;20457;-35
2023/07/11 10:47:11;;;;;;;2.58;1.05;;;27.50;99.90;;;;;;4987921;28;20050;-34
2023/07/11 10:49:52;;;;;;;4.30;0.88;;;27.50;99.90;;;;;;4989504;28;20058;-37
2023/07/11 10:52:25;;;;;;;4.32;1.40;;;27.60;99.90;;;;;;4993041;28;20108;-33
2023/07/11 10:55:05;;;;;;;3.10;1.35;;;27.60;99.90;;;;;;4989206;28;20120;-33
2023/07/11 10:57:46;;;;;;;4.22;1.20;;;27.60;99.90;;;;;;4998900;28;20053;-34
2023/07/11 11:41:36;;;;;;;4.00;1.40;;;28.70;99.90;;;;;;4969270;28;20061;-34
2023/07/11 11:44:11;;;;;;;2.97;1.20;;;28.70;99.90;;;;;;4972652;28;20119;-34
2023/07/11 11:46:37;;;;;;;4.13;1.30;;;28.90;99.90;;;;;;4967051;28;20046;-34
2023/07/11 11:49:07;;;;;;;2.80;1.33;;;29.00;99.90;;;;;;4979826;28;20046;-33
2023/07/11 11:51:34;;;;;;;5.22;1.60;;;29.10;99.90;;;;;;4979608;28;20145;-34
2023/07/11 11:54:20;;;;;;;4.78;1.55;;;29.20;99.90;;;;;;4982269;28;20543;-34
2023/07/11 11:57:04;;;;;;;4.35;1.30;;;29.20;99.90;;;;;;4967367;28;20054;-34
2023/07/11 11:59:31;;;;;;;4.20;1.70;;;29.10;99.90;;;;;;4962276;28;20105;-34
2023/07/11 12:02:10;;;;;;;4.45;1.08;;;29.20;99.90;;;;;;4964626;28;20548;-34
2023/07/11 12:04:45;;;;;;;2.78;1.20;;;29.20;99.90;;;;;;4978187;28;20100;-34
2023/07/11 12:07:10;;;;;;;4.70;1.45;;;29.30;99.90;;;;;;4962097;28;20057;-34
2023/07/11 12:09:39;;;;;;;4.13;1.25;;;29.30;99.90;;;;;;4978261;28;20059;-33
2023/07/11 12:12:13;;;;;;;3.75;1.20;;;29.30;99.90;;;;;;4985699;28;20058;-34
2023/07/11 12:14:50;;;;;;;2.05;1.13;;;29.40;99.90;;;;;;4984192;28;20054;-34
2023/07/11 12:17:34;;;;;;;4.20;1.42;;;29.40;99.90;;;;;;4982735;28;20050;-34
2023/07/11 12:19:59;;;;;;;3.75;1.05;;;29.40;99.90;;;;;;4985866;28;20497;-34
2023/07/11 12:22:26;;;;;;;2.92;1.40;;;29.50;99.90;;;;;;4984279;28;20068;-34
2023/07/11 12:25:02;;;;;;;4.07;1.55;;;29.50;99.90;;;;;;4992548;28;20141;-34
2023/07/11 12:27:28;;;;;;;5.72;1.40;;;29.40;99.90;;;;;;4989491;28;20058;-34
2023/07/11 12:29:55;;;;;;;3.58;1.42;;;29.40;99.90;;;;;;4986643;28;20443;-34
2023/07/11 12:32:32;;;;;;;3.60;1.13;;;29.50;99.90;;;;;;4995030;28;20492;-34
2023/07/11 12:35:04;;;;;;;2.95;1.38;;;29.30;99.90;;;;;;4986151;28;20053;-33
2023/07/11 12:38:00;;;;;;;4.93;1.15;;;29.00;99.90;;;;;;4984887;28;20532;-33
2023/07/11 12:40:48;;;;;;;6.45;1.40;;;28.80;99.90;;;;;;4983376;28;20057;-33
2023/07/11 12:43:17;;;;;;;7.60;1.40;;;28.60;99.90;;;;;;4984899;28;20078;-33
2023/07/11 12:45:47;;;;;;;4.60;1.23;;;28.70;99.90;;;;;;4993487;28;20053;-33
2023/07/11 12:48:17;;;;;;;4.50;1.27;;;28.60;99.90;;;;;;4993752;28;20512;-33
2023/07/11 12:50:51;;;;;;;4.05;1.20;;;28.60;99.90;;;;;;4995165;28;20089;-33
2023/07/11 12:53:18;;;;;;;2.60;0.90;;;28.40;99.90;;;;;;4997707;28;20112;-33
2023/07/11 12:55:48;;;;;;;2.50;0.90;;;28.30;99.90;;;;;;4990944;28;20504;-33
2023/07/11 12:58:40;;;;;;;2.92;0.90;;;28.20;99.90;;;;;;4989332;28;20054;-35
2023/07/11 13:01:13;;;;;;;5.28;1.10;;;28.10;99.90;;;;;;4990907;28;20137;-32
2023/07/11 13:03:39;;;;;;;3.08;1.00;;;28.10;99.90;;;;;;5008230;28;20058;-33
2023/07/11 13:06:26;;;;;;;4.72;1.10;;;28.00;99.90;;;;;;5004264;28;20065;-33
2023/07/11 13:08:55;;;;;;;6.00;1.40;;;28.00;99.90;;;;;;4997247;28;20050;-32
2023/07/11 13:11:32;;;;;;;4.15;1.20;;;27.90;99.90;;;;;;4999423;28;20053;-32
2023/07/11 13:13:57;;;;;;;3.25;1.13;;;28.10;99.90;;;;;;4999367;28;20050;-33
2023/07/11 13:16:44;;;;;;;2.47;0.95;;;28.10;99.90;;;;;;5002491;28;21126;-33
2023/07/11 13:19:21;;;;;;;2.88;1.13;;;28.30;99.90;;;;;;5004781;28;20120;-33
2023/07/11 13:21:48;;;;;;;5.03;1.58;;;28.40;99.90;;;;;;5000815;28;20313;-33
2023/07/11 13:24:27;;;;;;;5.18;1.33;;;28.50;99.90;;;;;;5000385;28;20049;-33
2023/07/11 13:26:54;;;;;;;3.67;1.27;;;28.50;99.90;;;;;;4996689;28;20115;-33
2023/07/11 13:29:21;;;;;;;2.80;1.05;;;28.40;99.90;;;;;;5002352;28;20104;-35
2023/07/11 13:31:59;;;;;;;4.10;1.13;;;28.50;99.90;;;;;;5000189;28;20411;-33
2023/07/11 13:34:29;;;;;;;3.63;1.30;;;28.60;99.90;;;;;;4995036;28;20065;-33
2023/07/11 13:36:56;;;;;;;5.68;1.35;;;28.60;99.90;;;;;;5016214;28;20084;-33
2023/07/11 13:39:34;;;;;;;6.68;1.55;;;28.60;99.90;;;;;;5005491;28;20045;-33